Rallye Mare e Machja 2017
Le 10,11, 12 Novembre
1 1 LEANDRI Jean-Mathieu/GORGUILO Anthony Skoda Fabia R 5 50:52,3
2 2 GORDON Jean Pierre/GORDON Fabrice Ford Fiesta R 5 52:12,8 +01:20,5 +01:20,5
3 8 GALEANI Jean-Joseph/LEONARDI Pierre-Marien Mitsubishi Evo 9 R 4 53:33,0 +02:40,7 +01:20,2
4 7 LEFEBVRE Frédéric/DINI Gilbert Mitsubishi Evo 9 FA 8 53:36,3 +02:44,0 +00:03,3
5 26 ANDREUCCI Frédéric/LECA Nicolas Renault Clio 16V FA 6K 54:03,4 +03:11,1 +00:27,1
6 4 PISANO Mickaël/BERTHOLLE Olivier Ford Fiesta R 5 54:07,8 +03:15,5 +00:04,4
7 40 ALERINI Paul/BARICHELLA Tony Peugeot 208 Vti R 2 54:26,9 +03:34,6 +00:19,1
8 41 FIORI Jean-Antoine/TAVERA Julien Citroën C2 R2 R 2 54:39,7 +03:47,4 +00:12,8
9 28 VANNUCCI Louis/DE BARTOLO Fabrice Citroën Saxo S1600 FA 6K 55:25,4 +04:33,1 +00:45,7
10 43 SERRA Dominique/BURESI Francois-Xavier Peugeot 208 Vti R 2 55:28,9 +04:36,6 +00:03,5
11 49 MUSELLI Jean-Philippe/MASSON Elodie Renault Clio FN 3 56:00,9 +05:08,6 +00:32,0
12 50 CHASSAING Philippe/BACCHIOLELLI Jean-Baptiste Renault Clio Ragnotti FN 3 56:05,7 +05:13,4 +00:04,8
13 51 DE LA FOATA Paul/TERRONI Cédric Renault Clio Ragnotti N 3 56:40,7 +05:48,4 +00:35,0
14 14 GAMBARELLI Anghjulu/CASANOVA Miguel Renault Clio F2 14 57:20,1 +06:27,8 +00:39,4
15 3 MARTINI Jean-Philippe/FIESCHI Ambroise Peugeot 208 T16 R 5 58:26,6 +07:34,3 +01:06,5
16 58 RENUCCI Antoine/SIMEONI Jean-Marc Renault Clio Ragnotti FN 3 58:28,6 +07:36,3 +00:02,0
17 34 MARIANI Anthony/HELM Vivien Peugeot 206 Xs FA 6K 58:46,9 +07:54,6 +00:18,3
18 45 BUCCI Pierre-Laurent/CAVIGLIOLI Caroline Citroën C2 R2 Max R 2 58:51,1 +07:58,8 +00:04,2
19 46 BURESI Adrien/BURESI Romain Peugeot 208 R2 R 2 59:00,7 +08:08,4 +00:09,6
20 42 GERONIMI Dominique/GARCIA Dann Citroën C2 Vts R 2 59:13,9 +08:21,6 +00:13,2
21 57 RASIGNI Romain/JOVER Denis Renault Clio Ragnotti N 3 59:15,6 +08:23,3 +00:01,7
22 10 ROSSI Yannick/VOLPEI Baptiste Mitsubishi Lancer Evo 9 FN 4 59:16,6 +08:24,3 +00:01,0
23 65 LORENZONI Philippe/CATELLAGGI Julie Honda Civic Eg6 FN 2 59:21,7 +08:29,4 +00:05,1
24 64 VENTURI Christian/PIERAZZI Arnaud Peugeot 205 Rallye FA 5 59:24,9 +08:32,6 +00:03,2
25 33 MARCHINI Jean Paul/SIMONETTI Johanna Peugeot 206 Xs A 6K 59:26,8 +08:34,5 +00:01,9
26 54 DE MEYER Jean-Michel/FRATTI Eric Renault Clio Ragnotti N 3 59:31,0 +08:38,7 +00:04,2
27 44 ANTONA Julien/MANZAGGI Nicolas Citroën C2 R2 Max R 2 59:55,9 +09:03,6 +00:24,9
28 59 MARCHETTI Michel/MAUREL Virginie Citroën Saxo Vts F2 13 1:00:03,3 +09:11,0 +00:07,4
29 15 FILMONT Jérôme/VIGNOLI Jean-Francois Peugeot 306 S16 F2 14 1:00:33,1 +09:40,8 +00:29,8
30 68 NIVAGGIONI Jean-Toussaint/PONSOT Sébastien Citroën Saxo Vts FN 2 1:00:40,2 +09:47,9 +00:07,1
31 6 GIOVANNANGELI Jean Baptiste/SANTARELLI Coralie BMW M3 FA 8 1:00:42,7 +09:50,4 +00:02,5
32 66 MAESTRACCI François/CASANOVA Sébastien Peugeot 106 FN 2 1:01:28,1 +10:35,8 +00:45,4
33 62 SALINI Laura/PERETTI Myriam Citroën Saxo FA 6 1:01:53,7 +11:01,4 +00:25,6
34 32 BROQUET John/STEFANAGGI Antoine Peugeot 106 S16 A 6K 1:02:04,6 +11:12,3 +00:10,9
35 9 CHIARONI Pascal/BRUNELLI Anne-Laure Renault Clio Sport Max R 3 1:02:11,3 +11:19,0 +00:06,7
36 39 VITTORI Marc-Antoine/PORCU Pascal-Andre Citroën C2 A 6K 1:02:17,1 +11:24,8 +00:05,8
37 22 RENUCCI Jacques-Andre/RENUCCI Daniel Peugeot 205 Gti F2 14 1:02:19,2 +11:26,9 +00:02,1
38 35 MARTINETTI Jean-Laurent/DELCLAUD Christian Peugeot 206 Xs A 6K 1:02:42,0 +11:49,7 +00:22,8
39 61 RENUCCI Antoine/RENUCCI Anthony Peugeot 205 Rallye F2 13 1:02:46,1 +11:53,8 +00:04,1
40 23 ROBERT Alexandre/MILIANI Pascal Peugeot 205 F2 14 1:03:04,5 +12:12,2 +00:18,4
41 74 PINELLI Jean-Pierre/CANEGGIANI Dylan Peugeot 205 Rallye F2 12 1:03:19,3 +12:27,0 +00:14,8
42 72 PAPON Jean-Noel/AMBROSI Céline Citroën Saxo Vts F2 12 1:03:33,5 +12:41,2 +00:14,2
43 37 CASALTA Cyril/FERRACCI Nicolas Peugeot 206 FA 6K 1:03:41,3 +12:49,0 +00:07,8
44 67 CASABIANCA Jacques-Francois/PENNACCHIONI Marcel Peugeot 106 S16 FN 2 1:04:16,0 +13:23,7 +00:34,7
45 76 NICOLI Gérard/GALTIERI Marie-Flore Citroën Ax Sport FN 1 1:04:46,8 +13:54,5 +00:30,8
46 48 PAOLI Benjamin/MOSSA Sebastien Peugeot 208 Vti R 2 1:05:42,4 +14:50,1 +00:55,6
47 36 GERONIMI Dominique-Noel/QUILICI Anthony Peugeot 106 S16 FA 6K 1:06:59,0 +16:06,7 +01:16,6
48 75 TROMBI Philippe/DELATTRE Judicael Peugeot 106 F2 12 1:07:15,2 +16:22,9 +00:16,2
49 25 SALVADORI Paul-Joseph/CARRE Jessica Peugeot 205 GTI F2 14 1:07:18,6 +16:26,3 +00:03,4
50 38 CADDEO Allan/LOUVEL Jade Peugeot 206 Xs FA 6K 1:08:03,5 +17:11,2 +00:44,9
51 24 ROSSINI Stefanu/ALTANA Ludovic Renault Clio F2 14 1:10:58,6 +20:06,3 +02:55,1
52 20 MISERAZZI Fabrice/ROS Patrick Peugeot 205 F2 14 1:14:25,7 +23:33,4 +03:27,1
53 47 GIANNINI Eric/GIANNINI Anthony Peugeot 208 R2 R 2 1:19:04,1 +28:11,8 +04:38,4
Clt Equipage Voiture Gr/Cl Temps Ecart 1er Ecart préc. Catégories
Commentaires: © PatricK Soft  
(Temps forfaitaires=couleur bleue)
Classés:53

Epreuve: Groupe: Catégorie:

 
Retour
Classement après ES5-Gradello - Verghija 3 (12.400 km)